sensor_id;sensor_type;location;lat;lon;timestamp;temperature;humidity
18648;DHT22;9453;50.294;18.644;2023-05-10T04:01:58;7.90;82.10
18648;DHT22;9453;50.294;18.644;2023-05-10T04:04:25;8.00;82.00
18648;DHT22;9453;50.294;18.644;2023-05-10T04:06:52;8.00;82.10
18648;DHT22;9453;50.294;18.644;2023-05-10T04:09:19;8.10;81.90
18648;DHT22;9453;50.294;18.644;2023-05-10T04:11:46;8.10;81.80
18648;DHT22;9453;50.294;18.644;2023-05-10T04:14:13;8.10;81.60
18648;DHT22;9453;50.294;18.644;2023-05-10T04:16:40;8.20;81.40
18648;DHT22;9453;50.294;18.644;2023-05-10T04:19:08;8.20;81.30
18648;DHT22;9453;50.294;18.644;2023-05-10T04:21:36;8.30;81.30
18648;DHT22;9453;50.294;18.644;2023-05-10T04:24:04;8.40;81.10
18648;DHT22;9453;50.294;18.644;2023-05-10T04:26:31;8.40;80.80
18648;DHT22;9453;50.294;18.644;2023-05-10T04:28:58;8.50;80.80
18648;DHT22;9453;50.294;18.644;2023-05-10T04:31:25;8.50;80.40
18648;DHT22;9453;50.294;18.644;2023-05-10T04:33:53;8.60;80.70
18648;DHT22;9453;50.294;18.644;2023-05-10T04:36:21;8.60;80.00
18648;DHT22;9453;50.294;18.644;2023-05-10T04:38:48;8.60;79.70
18648;DHT22;9453;50.294;18.644;2023-05-10T04:41:15;8.60;80.00
18648;DHT22;9453;50.294;18.644;2023-05-10T04:43:42;8.60;80.20
18648;DHT22;9453;50.294;18.644;2023-05-10T04:46:09;8.70;80.20
18648;DHT22;9453;50.294;18.644;2023-05-10T04:48:36;8.70;80.00
18648;DHT22;9453;50.294;18.644;2023-05-10T04:51:03;8.80;80.20
18648;DHT22;9453;50.294;18.644;2023-05-10T04:53:33;8.90;79.10
18648;DHT22;9453;50.294;18.644;2023-05-10T04:56:00;9.00;79.60
18648;DHT22;9453;50.294;18.644;2023-05-10T04:58:27;9.00;79.10
18648;DHT22;9453;50.294;18.644;2023-05-10T05:00:54;9.10;79.10
18648;DHT22;9453;50.294;18.644;2023-05-10T05:03:42;9.20;79.00
18648;DHT22;9453;50.294;18.644;2023-05-10T05:06:09;9.30;78.40
18648;DHT22;9453;50.294;18.644;2023-05-10T05:08:38;9.30;78.30
18648;DHT22;9453;50.294;18.644;2023-05-10T05:11:05;9.40;78.30
18648;DHT22;9453;50.294;18.644;2023-05-10T05:13:33;9.50;78.20
18648;DHT22;9453;50.294;18.644;2023-05-10T05:16:01;9.60;77.50
18648;DHT22;9453;50.294;18.644;2023-05-10T05:18:29;9.70;77.80
18648;DHT22;9453;50.294;18.644;2023-05-10T05:20:56;9.80;77.80
18648;DHT22;9453;50.294;18.644;2023-05-10T05:23:23;10.00;76.80
18648;DHT22;9453;50.294;18.644;2023-05-10T05:25:53;10.00;75.80
18648;DHT22;9453;50.294;18.644;2023-05-10T05:28:20;10.20;75.80
18648;DHT22;9453;50.294;18.644;2023-05-10T05:30:47;10.30;75.00
18648;DHT22;9453;50.294;18.644;2023-05-10T05:33:14;10.30;74.90
18648;DHT22;9453;50.294;18.644;2023-05-10T05:35:41;10.50;75.50
18648;DHT22;9453;50.294;18.644;2023-05-10T05:38:13;10.60;74.50
18648;DHT22;9453;50.294;18.644;2023-05-10T05:40:40;10.70;74.40
18648;DHT22;9453;50.294;18.644;2023-05-10T05:43:08;10.80;73.70
18648;DHT22;9453;50.294;18.644;2023-05-10T05:45:35;11.00;72.90
18648;DHT22;9453;50.294;18.644;2023-05-10T05:48:02;11.10;72.00
18648;DHT22;9453;50.294;18.644;2023-05-10T05:50:29;11.10;72.10
18648;DHT22;9453;50.294;18.644;2023-05-10T05:52:56;11.30;71.60
18648;DHT22;9453;50.294;18.644;2023-05-10T05:55:23;11.30;71.50
18648;DHT22;9453;50.294;18.644;2023-05-10T05:57:51;11.40;70.80
18648;DHT22;9453;50.294;18.644;2023-05-10T06:00:20;11.50;70.90
18648;DHT22;9453;50.294;18.644;2023-05-10T06:02:46;11.60;71.00
18648;DHT22;9453;50.294;18.644;2023-05-10T06:05:13;11.70;70.80
18648;DHT22;9453;50.294;18.644;2023-05-10T06:07:41;11.70;70.50
18648;DHT22;9453;50.294;18.644;2023-05-10T06:10:08;11.90;70.80
18648;DHT22;9453;50.294;18.644;2023-05-10T06:12:35;12.00;70.60
18648;DHT22;9453;50.294;18.644;2023-05-10T06:15:03;12.10;69.50
18648;DHT22;9453;50.294;18.644;2023-05-10T06:17:32;12.20;68.20
18648;DHT22;9453;50.294;18.644;2023-05-10T06:19:58;12.30;68.30
18648;DHT22;9453;50.294;18.644;2023-05-10T06:22:26;12.40;68.50
18648;DHT22;9453;50.294;18.644;2023-05-10T06:24:53;12.60;68.50
18648;DHT22;9453;50.294;18.644;2023-05-10T06:27:20;12.70;68.70
18648;DHT22;9453;50.294;18.644;2023-05-10T06:29:47;12.80;67.90
18648;DHT22;9453;50.294;18.644;2023-05-10T06:32:14;12.90;67.40
18648;DHT22;9453;50.294;18.644;2023-05-10T06:34:43;13.00;66.50
18648;DHT22;9453;50.294;18.644;2023-05-10T06:37:10;13.10;66.00
18648;DHT22;9453;50.294;18.644;2023-05-10T06:39:37;13.20;66.20
18648;DHT22;9453;50.294;18.644;2023-05-10T06:42:04;13.30;65.10
18648;DHT22;9453;50.294;18.644;2023-05-10T06:44:31;13.40;65.40
18648;DHT22;9453;50.294;18.644;2023-05-10T06:46:58;13.50;65.10
18648;DHT22;9453;50.294;18.644;2023-05-10T06:49:25;13.60;64.80
18648;DHT22;9453;50.294;18.644;2023-05-10T06:51:55;13.70;65.00
18648;DHT22;9453;50.294;18.644;2023-05-10T06:54:22;13.80;65.20
18648;DHT22;9453;50.294;18.644;2023-05-10T06:56:49;13.90;65.20
18648;DHT22;9453;50.294;18.644;2023-05-10T06:59:16;14.10;65.10
18648;DHT22;9453;50.294;18.644;2023-05-10T07:01:45;14.20;64.60
18648;DHT22;9453;50.294;18.644;2023-05-10T07:04:11;14.30;63.90
18648;DHT22;9453;50.294;18.644;2023-05-10T07:06:39;14.30;62.80
18648;DHT22;9453;50.294;18.644;2023-05-10T07:09:07;14.40;62.30
18648;DHT22;9453;50.294;18.644;2023-05-10T07:11:35;14.50;62.10
18648;DHT22;9453;50.294;18.644;2023-05-10T07:14:03;14.50;61.60
18648;DHT22;9453;50.294;18.644;2023-05-10T07:16:30;14.60;61.20
18648;DHT22;9453;50.294;18.644;2023-05-10T07:18:57;14.70;61.20
18648;DHT22;9453;50.294;18.644;2023-05-10T07:21:24;14.70;60.80
18648;DHT22;9453;50.294;18.644;2023-05-10T07:23:53;14.80;60.90
18648;DHT22;9453;50.294;18.644;2023-05-10T07:26:22;14.90;60.20
18648;DHT22;9453;50.294;18.644;2023-05-10T07:28:49;14.90;59.90
18648;DHT22;9453;50.294;18.644;2023-05-10T07:31:16;15.00;59.70
18648;DHT22;9453;50.294;18.644;2023-05-10T07:33:43;15.10;59.70
18648;DHT22;9453;50.294;18.644;2023-05-10T07:36:11;15.20;60.00
18648;DHT22;9453;50.294;18.644;2023-05-10T07:38:38;15.20;60.10
18648;DHT22;9453;50.294;18.644;2023-05-10T07:41:06;15.30;59.70
18648;DHT22;9453;50.294;18.644;2023-05-10T07:43:34;15.40;59.70
18648;DHT22;9453;50.294;18.644;2023-05-10T07:46:01;15.50;59.30
18648;DHT22;9453;50.294;18.644;2023-05-10T07:48:29;15.60;59.20
18648;DHT22;9453;50.294;18.644;2023-05-10T07:50:58;15.70;59.40
18648;DHT22;9453;50.294;18.644;2023-05-10T07:53:26;15.80;58.80
18648;DHT22;9453;50.294;18.644;2023-05-10T07:55:56;15.80;58.30
18648;DHT22;9453;50.294;18.644;2023-05-10T07:58:24;15.90;58.40
18648;DHT22;9453;50.294;18.644;2023-05-10T08:00:53;16.00;58.50
18648;DHT22;9453;50.294;18.644;2023-05-10T08:03:20;16.10;59.00
18648;DHT22;9453;50.294;18.644;2023-05-10T08:05:47;16.10;58.00
18648;DHT22;9453;50.294;18.644;2023-05-10T08:08:14;16.20;57.30
18648;DHT22;9453;50.294;18.644;2023-05-10T08:10:41;16.20;56.50
18648;DHT22;9453;50.294;18.644;2023-05-10T08:13:08;16.30;56.90
18648;DHT22;9453;50.294;18.644;2023-05-10T08:15:36;16.30;57.00
18648;DHT22;9453;50.294;18.644;2023-05-10T08:18:06;16.40;56.50
18648;DHT22;9453;50.294;18.644;2023-05-10T08:20:33;16.40;56.30
18648;DHT22;9453;50.294;18.644;2023-05-10T08:23:00;16.50;56.10
18648;DHT22;9453;50.294;18.644;2023-05-10T08:25:27;16.60;56.40
18648;DHT22;9453;50.294;18.644;2023-05-10T08:27:54;16.60;56.10
18648;DHT22;9453;50.294;18.644;2023-05-10T08:30:21;16.70;55.70
18648;DHT22;9453;50.294;18.644;2023-05-10T08:32:48;16.80;55.80
18648;DHT22;9453;50.294;18.644;2023-05-10T08:35:17;16.80;55.80
18648;DHT22;9453;50.294;18.644;2023-05-10T08:37:44;16.90;55.90
18648;DHT22;9453;50.294;18.644;2023-05-10T08:40:12;16.90;55.60
18648;DHT22;9453;50.294;18.644;2023-05-10T08:42:40;16.90;54.90
18648;DHT22;9453;50.294;18.644;2023-05-10T08:45:10;17.00;55.20
18648;DHT22;9453;50.294;18.644;2023-05-10T08:47:37;17.10;55.00
18648;DHT22;9453;50.294;18.644;2023-05-10T08:50:07;17.10;55.00
18648;DHT22;9453;50.294;18.644;2023-05-10T08:52:38;17.20;55.00
18648;DHT22;9453;50.294;18.644;2023-05-10T08:55:06;17.30;55.60
18648;DHT22;9453;50.294;18.644;2023-05-10T08:57:33;17.30;54.90
18648;DHT22;9453;50.294;18.644;2023-05-10T09:00:02;17.40;54.90
18648;DHT22;9453;50.294;18.644;2023-05-10T09:02:30;17.40;54.20
18648;DHT22;9453;50.294;18.644;2023-05-10T09:04:57;17.50;54.90
18648;DHT22;9453;50.294;18.644;2023-05-10T09:07:24;17.50;55.00
18648;DHT22;9453;50.294;18.644;2023-05-10T09:09:53;17.60;55.20
18648;DHT22;9453;50.294;18.644;2023-05-10T09:12:20;17.60;54.60
18648;DHT22;9453;50.294;18.644;2023-05-10T09:14:48;17.70;54.70
18648;DHT22;9453;50.294;18.644;2023-05-10T09:17:17;17.70;54.70
18648;DHT22;9453;50.294;18.644;2023-05-10T09:19:45;17.80;54.30
18648;DHT22;9453;50.294;18.644;2023-05-10T09:22:12;17.80;54.20
18648;DHT22;9453;50.294;18.644;2023-05-10T09:24:39;17.90;54.10
18648;DHT22;9453;50.294;18.644;2023-05-10T09:27:12;18.00;54.50
18648;DHT22;9453;50.294;18.644;2023-05-10T09:29:39;18.10;53.90
18648;DHT22;9453;50.294;18.644;2023-05-10T09:32:07;18.10;53.10
18648;DHT22;9453;50.294;18.644;2023-05-10T09:34:34;18.20;53.20
18648;DHT22;9453;50.294;18.644;2023-05-10T09:37:05;18.30;52.10
18648;DHT22;9453;50.294;18.644;2023-05-10T09:39:34;18.50;52.50
18648;DHT22;9453;50.294;18.644;2023-05-10T09:42:03;18.60;52.30
18648;DHT22;9453;50.294;18.644;2023-05-10T09:44:32;18.50;52.50
18648;DHT22;9453;50.294;18.644;2023-05-10T09:47:00;18.60;52.20
18648;DHT22;9453;50.294;18.644;2023-05-10T09:49:27;18.60;51.60
18648;DHT22;9453;50.294;18.644;2023-05-10T09:52:00;18.60;51.90
18648;DHT22;9453;50.294;18.644;2023-05-10T09:54:28;18.90;52.00
18648;DHT22;9453;50.294;18.644;2023-05-10T09:56:55;19.10;51.50
18648;DHT22;9453;50.294;18.644;2023-05-10T09:59:24;19.30;51.10
18648;DHT22;9453;50.294;18.644;2023-05-10T10:01:55;19.50;51.20
18648;DHT22;9453;50.294;18.644;2023-05-10T10:04:23;19.60;50.20
18648;DHT22;9453;50.294;18.644;2023-05-10T10:06:59;19.60;49.70
18648;DHT22;9453;50.294;18.644;2023-05-10T10:09:26;19.50;49.10
18648;DHT22;9453;50.294;18.644;2023-05-10T10:11:54;19.40;49.20
18648;DHT22;9453;50.294;18.644;2023-05-10T10:14:22;19.40;49.60
18648;DHT22;9453;50.294;18.644;2023-05-10T10:16:49;19.40;50.00
18648;DHT22;9453;50.294;18.644;2023-05-10T10:19:18;19.40;50.40
18648;DHT22;9453;50.294;18.644;2023-05-10T10:21:45;19.20;49.60
18648;DHT22;9453;50.294;18.644;2023-05-10T10:24:12;19.00;49.40
18648;DHT22;9453;50.294;18.644;2023-05-10T10:26:40;18.80;49.80
18648;DHT22;9453;50.294;18.644;2023-05-10T10:29:15;18.80;49.90
18648;DHT22;9453;50.294;18.644;2023-05-10T10:31:47;18.90;50.10
18648;DHT22;9453;50.294;18.644;2023-05-10T10:34:25;19.30;49.70
18648;DHT22;9453;50.294;18.644;2023-05-10T10:36:54;19.60;49.50
18648;DHT22;9453;50.294;18.644;2023-05-10T10:39:22;19.70;48.60
18648;DHT22;9453;50.294;18.644;2023-05-10T10:41:52;19.50;48.40
18648;DHT22;9453;50.294;18.644;2023-05-10T10:44:33;19.30;48.80
18648;DHT22;9453;50.294;18.644;2023-05-10T10:47:02;19.40;49.40
18648;DHT22;9453;50.294;18.644;2023-05-10T10:49:34;19.60;49.80
18648;DHT22;9453;50.294;18.644;2023-05-10T10:52:24;19.70;49.10
18648;DHT22;9453;50.294;18.644;2023-05-10T10:54:58;19.90;49.50
18648;DHT22;9453;50.294;18.644;2023-05-10T10:57:25;19.90;48.60
18648;DHT22;9453;50.294;18.644;2023-05-10T11:00:18;19.90;48.20
18648;DHT22;9453;50.294;18.644;2023-05-10T11:02:45;19.90;48.20
18648;DHT22;9453;50.294;18.644;2023-05-10T11:05:45;19.90;47.70
18648;DHT22;9453;50.294;18.644;2023-05-10T11:08:18;20.00;48.20
18648;DHT22;9453;50.294;18.644;2023-05-10T11:10:53;19.80;47.70
18648;DHT22;9453;50.294;18.644;2023-05-10T11:13:29;19.90;47.40
18648;DHT22;9453;50.294;18.644;2023-05-10T11:15:57;19.90;48.30
18648;DHT22;9453;50.294;18.644;2023-05-10T11:18:26;19.80;48.40
18648;DHT22;9453;50.294;18.644;2023-05-10T11:20:58;19.70;49.00
18648;DHT22;9453;50.294;18.644;2023-05-10T11:23:30;19.60;48.70
18648;DHT22;9453;50.294;18.644;2023-05-10T11:25:58;19.60;49.30
18648;DHT22;9453;50.294;18.644;2023-05-10T11:28:26;19.60;49.00
18648;DHT22;9453;50.294;18.644;2023-05-10T11:30:54;19.70;49.00
18648;DHT22;9453;50.294;18.644;2023-05-10T11:33:22;19.70;49.30
18648;DHT22;9453;50.294;18.644;2023-05-10T11:35:49;19.90;49.00
18648;DHT22;9453;50.294;18.644;2023-05-10T11:38:17;20.00;48.90
18648;DHT22;9453;50.294;18.644;2023-05-10T11:40:44;20.10;47.80
18648;DHT22;9453;50.294;18.644;2023-05-10T11:43:12;20.40;47.90
18648;DHT22;9453;50.294;18.644;2023-05-10T11:45:40;20.50;47.10
18648;DHT22;9453;50.294;18.644;2023-05-10T11:48:08;20.60;47.20
18648;DHT22;9453;50.294;18.644;2023-05-10T11:50:34;20.60;46.70
18648;DHT22;9453;50.294;18.644;2023-05-10T11:53:01;20.50;47.00
18648;DHT22;9453;50.294;18.644;2023-05-10T11:55:33;20.40;47.30
18648;DHT22;9453;50.294;18.644;2023-05-10T11:58:01;20.50;47.40
18648;DHT22;9453;50.294;18.644;2023-05-10T12:00:30;20.60;47.40
18648;DHT22;9453;50.294;18.644;2023-05-10T12:02:57;20.70;47.20
18648;DHT22;9453;50.294;18.644;2023-05-10T12:05:25;20.80;46.90
18648;DHT22;9453;50.294;18.644;2023-05-10T12:07:52;20.70;46.90
18648;DHT22;9453;50.294;18.644;2023-05-10T12:10:27;20.70;47.50
18648;DHT22;9453;50.294;18.644;2023-05-10T12:12:56;20.70;47.10
18648;DHT22;9453;50.294;18.644;2023-05-10T12:15:24;20.70;46.80
18648;DHT22;9453;50.294;18.644;2023-05-10T12:17:51;21.00;47.60
18648;DHT22;9453;50.294;18.644;2023-05-10T12:20:19;21.00;46.60
18648;DHT22;9453;50.294;18.644;2023-05-10T12:22:49;20.80;46.30
18648;DHT22;9453;50.294;18.644;2023-05-10T12:25:19;20.80;46.50
18648;DHT22;9453;50.294;18.644;2023-05-10T12:27:51;20.80;46.50
18648;DHT22;9453;50.294;18.644;2023-05-10T12:30:24;20.90;46.50
18648;DHT22;9453;50.294;18.644;2023-05-10T12:32:52;21.20;47.10
18648;DHT22;9453;50.294;18.644;2023-05-10T12:35:19;21.40;48.10
18648;DHT22;9453;50.294;18.644;2023-05-10T12:37:50;21.50;46.30
18648;DHT22;9453;50.294;18.644;2023-05-10T12:40:17;21.60;45.70
18648;DHT22;9453;50.294;18.644;2023-05-10T12:42:44;21.50;45.10
18648;DHT22;9453;50.294;18.644;2023-05-10T12:45:11;21.60;46.50
18648;DHT22;9453;50.294;18.644;2023-05-10T12:47:40;21.50;46.00
18648;DHT22;9453;50.294;18.644;2023-05-10T12:50:08;21.30;46.10
18648;DHT22;9453;50.294;18.644;2023-05-10T12:52:34;21.10;46.40
18648;DHT22;9453;50.294;18.644;2023-05-10T12:55:02;21.10;46.90
18648;DHT22;9453;50.294;18.644;2023-05-10T12:57:29;21.10;46.30
18648;DHT22;9453;50.294;18.644;2023-05-10T12:59:57;21.10;46.20
18648;DHT22;9453;50.294;18.644;2023-05-10T13:02:23;21.30;46.30
18648;DHT22;9453;50.294;18.644;2023-05-10T13:04:52;21.60;45.90
18648;DHT22;9453;50.294;18.644;2023-05-10T13:07:19;21.90;45.40
18648;DHT22;9453;50.294;18.644;2023-05-10T13:09:46;22.20;45.00
18648;DHT22;9453;50.294;18.644;2023-05-10T13:12:13;22.40;45.40
18648;DHT22;9453;50.294;18.644;2023-05-10T13:14:40;22.40;45.10
18648;DHT22;9453;50.294;18.644;2023-05-10T13:17:07;22.30;44.10
18648;DHT22;9453;50.294;18.644;2023-05-10T13:19:34;22.40;44.30
18648;DHT22;9453;50.294;18.644;2023-05-10T13:22:03;22.40;43.40
18648;DHT22;9453;50.294;18.644;2023-05-10T13:24:30;22.20;43.20
18648;DHT22;9453;50.294;18.644;2023-05-10T13:26:58;21.80;43.70
18648;DHT22;9453;50.294;18.644;2023-05-10T13:29:24;21.60;45.10
18648;DHT22;9453;50.294;18.644;2023-05-10T13:31:51;21.30;45.00
18648;DHT22;9453;50.294;18.644;2023-05-10T13:34:18;21.20;45.60
18648;DHT22;9453;50.294;18.644;2023-05-10T13:36:46;21.00;45.70
18648;DHT22;9453;50.294;18.644;2023-05-10T13:39:15;21.10;45.80
18648;DHT22;9453;50.294;18.644;2023-05-10T13:41:42;21.30;45.90
18648;DHT22;9453;50.294;18.644;2023-05-10T13:44:12;21.60;45.50
18648;DHT22;9453;50.294;18.644;2023-05-10T13:46:41;21.80;44.10
18648;DHT22;9453;50.294;18.644;2023-05-10T13:49:18;21.80;44.30
18648;DHT22;9453;50.294;18.644;2023-05-10T13:51:47;22.00;44.50
18648;DHT22;9453;50.294;18.644;2023-05-10T13:54:15;21.90;43.70
18648;DHT22;9453;50.294;18.644;2023-05-10T13:56:45;21.80;44.40
18648;DHT22;9453;50.294;18.644;2023-05-10T13:59:12;22.20;45.10
18648;DHT22;9453;50.294;18.644;2023-05-10T14:01:41;22.60;43.60
18648;DHT22;9453;50.294;18.644;2023-05-10T14:04:08;23.00;44.00
18648;DHT22;9453;50.294;18.644;2023-05-10T14:06:36;23.50;41.60
18648;DHT22;9453;50.294;18.644;2023-05-10T14:09:03;23.90;41.90
18648;DHT22;9453;50.294;18.644;2023-05-10T14:11:31;24.40;40.60
18648;DHT22;9453;50.294;18.644;2023-05-10T14:13:58;24.80;39.60
18648;DHT22;9453;50.294;18.644;2023-05-10T14:16:25;25.10;38.50
18648;DHT22;9453;50.294;18.644;2023-05-10T14:18:53;25.40;38.40
18648;DHT22;9453;50.294;18.644;2023-05-10T14:21:19;25.60;38.10
18648;DHT22;9453;50.294;18.644;2023-05-10T14:23:46;25.80;38.00
18648;DHT22;9453;50.294;18.644;2023-05-10T14:26:13;25.60;38.30
18648;DHT22;9453;50.294;18.644;2023-05-10T14:28:41;25.50;38.40
18648;DHT22;9453;50.294;18.644;2023-05-10T14:31:08;25.50;38.10
18648;DHT22;9453;50.294;18.644;2023-05-10T14:33:35;25.50;38.20
18648;DHT22;9453;50.294;18.644;2023-05-10T14:36:03;25.60;38.10
18648;DHT22;9453;50.294;18.644;2023-05-10T14:38:31;25.70;37.60
18648;DHT22;9453;50.294;18.644;2023-05-10T14:40:58;25.70;37.40
18648;DHT22;9453;50.294;18.644;2023-05-10T14:43:25;25.90;37.90
18648;DHT22;9453;50.294;18.644;2023-05-10T14:45:54;26.00;37.90
18648;DHT22;9453;50.294;18.644;2023-05-10T14:48:21;26.10;37.10
18648;DHT22;9453;50.294;18.644;2023-05-10T14:50:48;26.20;36.40
18648;DHT22;9453;50.294;18.644;2023-05-10T14:53:16;25.90;36.50
18648;DHT22;9453;50.294;18.644;2023-05-10T14:55:43;25.60;37.30
18648;DHT22;9453;50.294;18.644;2023-05-10T14:58:10;25.30;38.00
18648;DHT22;9453;50.294;18.644;2023-05-10T15:00:37;25.20;38.20
18648;DHT22;9453;50.294;18.644;2023-05-10T15:03:05;25.40;38.10
18648;DHT22;9453;50.294;18.644;2023-05-10T15:05:32;25.80;37.70
18648;DHT22;9453;50.294;18.644;2023-05-10T15:07:59;26.10;37.50
18648;DHT22;9453;50.294;18.644;2023-05-10T15:10:27;26.40;37.30
18648;DHT22;9453;50.294;18.644;2023-05-10T15:12:53;26.70;36.00
18648;DHT22;9453;50.294;18.644;2023-05-10T15:15:20;26.90;34.60
18648;DHT22;9453;50.294;18.644;2023-05-10T15:17:56;27.10;34.00
18648;DHT22;9453;50.294;18.644;2023-05-10T15:20:24;27.30;35.20
18648;DHT22;9453;50.294;18.644;2023-05-10T15:22:52;27.20;35.40
18648;DHT22;9453;50.294;18.644;2023-05-10T15:25:19;26.70;34.80
18648;DHT22;9453;50.294;18.644;2023-05-10T15:27:46;26.10;35.70
18648;DHT22;9453;50.294;18.644;2023-05-10T15:30:14;25.90;35.80
18648;DHT22;9453;50.294;18.644;2023-05-10T15:32:41;25.90;35.90
18648;DHT22;9453;50.294;18.644;2023-05-10T15:35:08;26.20;36.50
18648;DHT22;9453;50.294;18.644;2023-05-10T15:37:37;26.50;36.30
18648;DHT22;9453;50.294;18.644;2023-05-10T15:40:05;26.80;36.10
18648;DHT22;9453;50.294;18.644;2023-05-10T15:42:32;26.90;36.10
18648;DHT22;9453;50.294;18.644;2023-05-10T15:44:59;27.20;35.10
18648;DHT22;9453;50.294;18.644;2023-05-10T15:47:26;27.10;35.20
18648;DHT22;9453;50.294;18.644;2023-05-10T15:49:54;26.90;34.90
18648;DHT22;9453;50.294;18.644;2023-05-10T15:52:20;26.30;35.60
18648;DHT22;9453;50.294;18.644;2023-05-10T15:54:49;25.40;36.60
18648;DHT22;9453;50.294;18.644;2023-05-10T15:57:16;24.90;37.50
18648;DHT22;9453;50.294;18.644;2023-05-10T15:59:43;24.40;38.60
18648;DHT22;9453;50.294;18.644;2023-05-10T16:02:10;23.80;39.50
18648;DHT22;9453;50.294;18.644;2023-05-10T16:04:37;23.50;40.20
18648;DHT22;9453;50.294;18.644;2023-05-10T16:07:09;23.10;40.50
18648;DHT22;9453;50.294;18.644;2023-05-10T16:09:36;22.90;41.10
18648;DHT22;9453;50.294;18.644;2023-05-10T16:12:05;22.70;42.00
18648;DHT22;9453;50.294;18.644;2023-05-10T16:14:33;22.50;42.10
18648;DHT22;9453;50.294;18.644;2023-05-10T16:17:00;22.20;42.60
18648;DHT22;9453;50.294;18.644;2023-05-10T16:19:28;22.00;43.10
18648;DHT22;9453;50.294;18.644;2023-05-10T16:21:55;21.80;43.80
18648;DHT22;9453;50.294;18.644;2023-05-10T16:24:22;21.60;44.10
18648;DHT22;9453;50.294;18.644;2023-05-10T16:26:49;21.60;44.50
18648;DHT22;9453;50.294;18.644;2023-05-10T16:29:17;21.40;44.70
18648;DHT22;9453;50.294;18.644;2023-05-10T16:31:44;21.30;45.40
18648;DHT22;9453;50.294;18.644;2023-05-10T16:34:11;21.20;45.60
18648;DHT22;9453;50.294;18.644;2023-05-10T16:36:38;21.00;45.00
18648;DHT22;9453;50.294;18.644;2023-05-10T16:39:06;20.80;44.70
18648;DHT22;9453;50.294;18.644;2023-05-10T16:41:34;20.70;44.90
18648;DHT22;9453;50.294;18.644;2023-05-10T16:44:01;20.60;45.60
18648;DHT22;9453;50.294;18.644;2023-05-10T16:46:29;20.50;45.80
18648;DHT22;9453;50.294;18.644;2023-05-10T16:48:57;20.50;45.90
18648;DHT22;9453;50.294;18.644;2023-05-10T16:51:24;20.40;46.20
18648;DHT22;9453;50.294;18.644;2023-05-10T16:53:52;20.40;46.30
18648;DHT22;9453;50.294;18.644;2023-05-10T16:56:19;20.40;46.00
18648;DHT22;9453;50.294;18.644;2023-05-10T16:58:47;20.30;46.00
18648;DHT22;9453;50.294;18.644;2023-05-10T17:01:14;20.30;46.50
18648;DHT22;9453;50.294;18.644;2023-05-10T17:03:43;20.20;47.10
18648;DHT22;9453;50.294;18.644;2023-05-10T17:06:10;20.10;47.00
18648;DHT22;9453;50.294;18.644;2023-05-10T17:08:38;20.00;46.90
18648;DHT22;9453;50.294;18.644;2023-05-10T17:11:05;19.80;46.90
18648;DHT22;9453;50.294;18.644;2023-05-10T17:13:32;19.60;46.90
18648;DHT22;9453;50.294;18.644;2023-05-10T17:16:00;19.50;47.20
18648;DHT22;9453;50.294;18.644;2023-05-10T17:18:28;19.40;47.80
18648;DHT22;9453;50.294;18.644;2023-05-10T17:20:56;19.20;48.20
18648;DHT22;9453;50.294;18.644;2023-05-10T17:23:23;19.10;48.50
18648;DHT22;9453;50.294;18.644;2023-05-10T17:25:50;19.00;49.00
18648;DHT22;9453;50.294;18.644;2023-05-10T17:28:17;18.80;49.10
18648;DHT22;9453;50.294;18.644;2023-05-10T17:30:44;18.80;49.30
18648;DHT22;9453;50.294;18.644;2023-05-10T17:33:11;18.70;49.60
18648;DHT22;9453;50.294;18.644;2023-05-10T17:35:38;18.50;50.00
18648;DHT22;9453;50.294;18.644;2023-05-10T17:38:06;18.50;50.40
18648;DHT22;9453;50.294;18.644;2023-05-10T17:40:33;18.30;50.70
18648;DHT22;9453;50.294;18.644;2023-05-10T17:43:00;18.20;51.30
18648;DHT22;9453;50.294;18.644;2023-05-10T17:45:30;18.10;51.80
18648;DHT22;9453;50.294;18.644;2023-05-10T17:47:57;18.00;52.20
18648;DHT22;9453;50.294;18.644;2023-05-10T17:50:24;17.90;52.40
18648;DHT22;9453;50.294;18.644;2023-05-10T17:52:51;17.80;52.90
18648;DHT22;9453;50.294;18.644;2023-05-10T17:55:20;17.70;53.40
18648;DHT22;9453;50.294;18.644;2023-05-10T17:57:47;17.60;54.20
18648;DHT22;9453;50.294;18.644;2023-05-10T18:00:15;17.40;54.60
18648;DHT22;9453;50.294;18.644;2023-05-10T18:02:42;17.30;55.00
18648;DHT22;9453;50.294;18.644;2023-05-10T18:05:09;17.20;55.30
18648;DHT22;9453;50.294;18.644;2023-05-10T18:07:36;17.10;55.40
18648;DHT22;9453;50.294;18.644;2023-05-10T18:10:05;17.00;55.60
18648;DHT22;9453;50.294;18.644;2023-05-10T18:12:34;16.90;55.70
18648;DHT22;9453;50.294;18.644;2023-05-10T18:15:25;16.80;56.10
18648;DHT22;9453;50.294;18.644;2023-05-10T18:17:52;16.70;56.60
18648;DHT22;9453;50.294;18.644;2023-05-10T18:20:20;16.60;56.40
18648;DHT22;9453;50.294;18.644;2023-05-10T18:22:47;16.50;56.60
18648;DHT22;9453;50.294;18.644;2023-05-10T18:25:15;16.40;57.40
18648;DHT22;9453;50.294;18.644;2023-05-10T18:27:43;16.30;57.30
18648;DHT22;9453;50.294;18.644;2023-05-10T18:30:11;16.10;57.10
18648;DHT22;9453;50.294;18.644;2023-05-10T18:32:38;16.10;57.50
18648;DHT22;9453;50.294;18.644;2023-05-10T18:35:07;16.00;57.40
18648;DHT22;9453;50.294;18.644;2023-05-10T18:37:35;16.00;57.70
18648;DHT22;9453;50.294;18.644;2023-05-10T18:40:03;15.90;57.80
18648;DHT22;9453;50.294;18.644;2023-05-10T18:42:30;15.90;57.60
18648;DHT22;9453;50.294;18.644;2023-05-10T18:44:59;15.80;57.70
18648;DHT22;9453;50.294;18.644;2023-05-10T18:47:26;15.80;58.20
18648;DHT22;9453;50.294;18.644;2023-05-10T18:49:53;15.80;57.90
18648;DHT22;9453;50.294;18.644;2023-05-10T18:52:20;15.80;57.50
18648;DHT22;9453;50.294;18.644;2023-05-10T18:54:48;15.90;57.60
18648;DHT22;9453;50.294;18.644;2023-05-10T18:57:15;16.00;57.10
18648;DHT22;9453;50.294;18.644;2023-05-10T18:59:42;16.10;56.80
18648;DHT22;9453;50.294;18.644;2023-05-10T19:02:11;16.20;56.30
18648;DHT22;9453;50.294;18.644;2023-05-10T19:04:38;16.20;56.20
18648;DHT22;9453;50.294;18.644;2023-05-10T19:07:05;16.30;55.80
18648;DHT22;9453;50.294;18.644;2023-05-10T19:09:32;16.30;55.20
18648;DHT22;9453;50.294;18.644;2023-05-10T19:11:59;16.30;55.40
18648;DHT22;9453;50.294;18.644;2023-05-10T19:14:27;16.30;55.60
18648;DHT22;9453;50.294;18.644;2023-05-10T19:16:54;16.30;55.50
18648;DHT22;9453;50.294;18.644;2023-05-10T19:19:22;16.30;55.60
18648;DHT22;9453;50.294;18.644;2023-05-10T19:21:51;16.30;55.70
18648;DHT22;9453;50.294;18.644;2023-05-10T19:24:18;16.30;55.50
18648;DHT22;9453;50.294;18.644;2023-05-10T19:26:47;16.30;55.90
18648;DHT22;9453;50.294;18.644;2023-05-10T19:29:14;16.30;55.50
18648;DHT22;9453;50.294;18.644;2023-05-10T19:31:41;16.30;55.60
18648;DHT22;9453;50.294;18.644;2023-05-10T19:34:11;16.30;55.70
18648;DHT22;9453;50.294;18.644;2023-05-10T19:36:39;16.20;55.50
18648;DHT22;9453;50.294;18.644;2023-05-10T19:39:06;16.20;55.30